createdAt,value
2019-03-05T00:00:56.368Z,59.02
2019-03-05T00:03:25.549Z,59.09
2019-03-05T00:05:54.838Z,59.39
2019-03-05T00:08:24.012Z,59.56
2019-03-05T00:10:53.253Z,59.63
2019-03-05T00:13:22.481Z,59.77
2019-03-05T00:15:52.830Z,59.95
2019-03-05T00:18:22.002Z,60.46
2019-03-05T00:20:51.256Z,60.53
2019-03-05T00:23:44.950Z,60.80
2019-03-05T00:26:14.221Z,61.10
2019-03-05T00:29:30.119Z,61.42
2019-03-05T00:31:59.669Z,61.67
2019-03-05T00:35:27.471Z,62.10
2019-03-05T00:38:44.039Z,62.31
2019-03-05T00:41:58.305Z,62.22
2019-03-05T00:44:50.053Z,62.46
2019-03-05T00:47:44.867Z,62.38
2019-03-05T00:51:01.313Z,62.61
2019-03-05T00:54:14.070Z,62.57
2019-03-05T00:57:07.464Z,62.54
2019-03-05T01:00:00.731Z,62.73
2019-03-05T01:02:54.004Z,62.89
2019-03-05T01:05:32.059Z,63.00
2019-03-05T01:08:01.438Z,63.05
2019-03-05T01:10:30.690Z,63.12
2019-03-05T01:13:00.371Z,62.92
2019-03-05T01:15:29.710Z,62.73
2019-03-05T01:17:58.895Z,62.91
2019-03-05T01:20:28.456Z,62.76
2019-03-05T01:22:57.628Z,62.69
2019-03-05T01:25:28.919Z,62.32
2019-03-05T01:27:58.095Z,62.34
2019-03-05T01:30:58.275Z,62.04
2019-03-05T01:33:29.436Z,62.05
2019-03-05T01:36:03.005Z,62.16
2019-03-05T01:38:37.223Z,62.10
2019-03-05T01:41:08.635Z,62.07
2019-03-05T01:43:37.810Z,62.01
2019-03-05T01:46:07.034Z,62.44
2019-03-05T01:48:36.206Z,62.39
2019-03-05T01:51:05.437Z,62.52
2019-03-05T01:53:34.611Z,62.50
2019-03-05T01:56:03.865Z,62.67
2019-03-05T01:58:33.035Z,62.62
2019-03-05T02:01:02.295Z,62.85
2019-03-05T02:03:31.533Z,63.04
2019-03-05T02:06:00.779Z,63.00
2019-03-05T02:08:30.007Z,63.15
2019-03-05T02:10:59.176Z,63.19
2019-03-05T02:13:28.402Z,63.26
2019-03-05T02:15:57.574Z,63.36
2019-03-05T02:18:27.175Z,63.25
2019-03-05T02:20:56.651Z,63.58
2019-03-05T02:23:58.655Z,63.49
2019-03-05T02:27:20.190Z,63.56
2019-03-05T02:30:21.772Z,63.53
2019-03-05T02:33:11.649Z,63.33
2019-03-05T02:36:02.924Z,63.37
2019-03-05T02:38:44.974Z,63.27
2019-03-05T02:41:41.393Z,63.02
2019-03-05T02:44:57.570Z,63.00
2019-03-05T02:48:14.327Z,63.09
2019-03-05T02:51:11.231Z,63.06
2019-03-05T02:54:15.662Z,63.14
2019-03-05T02:57:09.565Z,63.18
2019-03-05T02:59:38.907Z,63.07
2019-03-05T03:02:29.517Z,63.07
2019-03-05T03:05:26.735Z,63.15
2019-03-05T03:07:56.019Z,63.29
2019-03-05T03:10:25.867Z,63.45
2019-03-05T03:12:55.400Z,63.20
2019-03-05T03:15:24.575Z,63.27
2019-03-05T03:17:53.793Z,63.24
2019-03-05T03:20:23.764Z,63.19
2019-03-05T03:22:53.049Z,63.15
2019-03-05T03:25:23.417Z,63.14
2019-03-05T03:27:52.666Z,63.02
2019-03-05T03:30:26.033Z,62.94
2019-03-05T03:32:55.402Z,62.65
2019-03-05T03:35:24.707Z,62.85
2019-03-05T03:37:53.905Z,62.67
2019-03-05T03:40:24.155Z,62.58
2019-03-05T03:42:54.140Z,62.25
2019-03-05T03:45:24.594Z,62.05
2019-03-05T03:47:53.908Z,61.92
2019-03-05T03:50:24.086Z,61.84
2019-03-05T03:52:53.372Z,61.92
2019-03-05T03:55:22.819Z,61.67
2019-03-05T03:57:52.097Z,61.54
2019-03-05T04:00:22.793Z,61.30
2019-03-05T04:02:52.479Z,61.04
2019-03-05T04:05:21.774Z,61.10
2019-03-05T04:07:51.211Z,61.14
2019-03-05T04:10:23.241Z,61.01
2019-03-05T04:12:52.434Z,60.88
2019-03-05T04:15:21.973Z,60.67
2019-03-05T04:17:51.142Z,60.34
2019-03-05T04:20:33.422Z,60.38
2019-03-05T04:23:02.602Z,59.60
2019-03-05T04:25:31.850Z,59.75
2019-03-05T04:28:01.023Z,59.80
2019-03-05T04:30:30.180Z,59.89
2019-03-05T04:32:59.678Z,59.46
2019-03-05T04:35:29.122Z,59.11
2019-03-05T04:37:58.358Z,59.16
2019-03-05T04:40:27.532Z,59.10
2019-03-05T04:42:56.748Z,58.94
2019-03-05T04:45:53.667Z,58.64
2019-03-05T04:48:22.892Z,58.32
2019-03-05T04:51:10.955Z,58.41
2019-03-05T04:53:40.179Z,58.50
2019-03-05T04:56:09.406Z,58.62
2019-03-05T04:58:38.630Z,58.54
2019-03-05T05:01:07.816Z,58.52
2019-03-05T05:03:37.315Z,58.64
2019-03-05T05:06:06.807Z,58.56
2019-03-05T05:08:36.039Z,58.75
2019-03-05T05:11:05.200Z,58.82
2019-03-05T05:13:34.417Z,58.97
2019-03-05T05:16:03.588Z,59.06
2019-03-05T05:18:32.812Z,59.23
2019-03-05T05:21:01.983Z,59.29
2019-03-05T05:23:31.512Z,59.13
2019-03-05T05:26:00.690Z,59.33
2019-03-05T05:28:29.918Z,59.36
2019-03-05T05:30:59.096Z,59.35
2019-03-05T05:33:29.096Z,59.44
2019-03-05T05:35:58.292Z,59.73
2019-03-05T05:38:27.517Z,59.91
2019-03-05T05:40:56.964Z,60.11
2019-03-05T05:43:28.440Z,59.79
2019-03-05T05:45:57.617Z,59.92
2019-03-05T05:48:27.066Z,60.01
2019-03-05T05:50:56.291Z,60.03
2019-03-05T05:53:25.528Z,60.16
2019-03-05T05:55:54.714Z,60.31
2019-03-05T05:58:23.901Z,60.22
2019-03-05T06:00:55.202Z,60.05
2019-03-05T06:03:24.387Z,60.08
2019-03-05T06:05:53.653Z,60.31
2019-03-05T06:08:23.098Z,60.31
2019-03-05T06:10:53.107Z,59.86
2019-03-05T06:13:22.505Z,59.89
2019-03-05T06:15:51.703Z,59.84
2019-03-05T06:18:20.888Z,59.67
2019-03-05T06:20:50.068Z,59.83
2019-03-05T06:23:19.296Z,59.86
2019-03-05T06:25:48.471Z,60.12
2019-03-05T06:28:17.977Z,60.27
2019-03-05T06:30:47.153Z,60.25
2019-03-05T06:33:16.388Z,60.11
2019-03-05T06:35:45.633Z,59.71
2019-03-05T06:38:14.807Z,59.62
2019-03-05T06:40:44.297Z,59.54
2019-03-05T06:43:13.740Z,59.63
2019-03-05T06:45:42.961Z,59.18
2019-03-05T06:48:12.136Z,59.31
2019-03-05T06:50:41.368Z,59.44
2019-03-05T06:53:10.559Z,59.12
2019-03-05T06:55:39.803Z,59.14
2019-03-05T06:58:11.717Z,59.10
2019-03-05T07:00:40.588Z,58.76
2019-03-05T07:03:09.848Z,58.73
2019-03-05T07:06:33.746Z,58.58
2019-03-05T07:09:17.493Z,58.37
2019-03-05T07:12:12.070Z,58.35
2019-03-05T07:15:16.661Z,58.43
2019-03-05T07:17:50.005Z,58.29
2019-03-05T07:21:21.108Z,57.86
2019-03-05T07:24:27.752Z,57.76
2019-03-05T07:26:56.929Z,57.51
2019-03-05T07:29:26.168Z,57.43
2019-03-05T07:31:55.358Z,57.23
2019-03-05T07:34:27.875Z,57.36
2019-03-05T07:36:57.048Z,57.40
2019-03-05T07:39:27.131Z,57.11
2019-03-05T07:41:56.301Z,57.22
2019-03-05T07:44:25.534Z,57.36
2019-03-05T07:46:54.718Z,57.13
2019-03-05T07:49:23.979Z,57.09
2019-03-05T07:51:53.149Z,57.08
2019-03-05T07:54:22.407Z,57.22
2019-03-05T07:56:51.580Z,57.27
2019-03-05T07:59:20.764Z,57.13
2019-03-05T08:01:49.998Z,57.12
2019-03-05T08:04:19.464Z,57.14
2019-03-05T08:06:49.065Z,57.28
2019-03-05T08:09:34.535Z,57.22
2019-03-05T08:12:58.134Z,57.32
2019-03-05T08:16:08.533Z,56.59
2019-03-05T08:18:37.713Z,56.45
2019-03-05T08:21:07.699Z,56.02
2019-03-05T08:23:36.892Z,56.12
2019-03-05T08:26:06.131Z,56.00
2019-03-05T08:28:35.317Z,55.82
2019-03-05T08:31:04.868Z,55.59
2019-03-05T08:33:34.037Z,55.48
2019-03-05T08:36:03.443Z,55.26
2019-03-05T08:38:32.620Z,54.58
2019-03-05T08:41:01.845Z,54.22
2019-03-05T08:43:31.027Z,53.78
2019-03-05T08:46:00.265Z,52.36
2019-03-05T08:48:29.449Z,52.24
2019-03-05T08:50:58.634Z,51.71
2019-03-05T08:53:27.867Z,51.21
2019-03-05T08:55:57.323Z,50.54
2019-03-05T08:58:26.823Z,50.04
2019-03-05T09:00:56.003Z,50.00
2019-03-05T09:03:25.252Z,49.33
2019-03-05T09:05:54.502Z,49.28
2019-03-05T09:08:23.722Z,49.17
2019-03-05T09:10:53.551Z,49.06
2019-03-05T09:13:32.361Z,48.58
2019-03-05T09:15:54.211Z,48.79
2019-03-05T09:18:23.438Z,48.82
2019-03-05T09:20:53.093Z,48.46
2019-03-05T09:23:22.326Z,48.12
2019-03-05T09:25:51.498Z,48.21
2019-03-05T09:28:20.740Z,48.44
2019-03-05T09:30:50.198Z,47.83
2019-03-05T09:33:19.700Z,47.98
2019-03-05T09:35:48.869Z,48.24
2019-03-05T09:38:18.132Z,48.25
2019-03-05T09:40:47.313Z,47.23
2019-03-05T09:43:16.485Z,47.50
2019-03-05T09:45:45.722Z,48.26
2019-03-05T09:48:14.898Z,48.00
2019-03-05T09:50:44.254Z,48.31
2019-03-05T09:53:14.012Z,48.85
2019-03-05T09:55:43.250Z,48.80
2019-03-05T09:58:12.428Z,49.13
2019-03-05T10:00:42.136Z,49.06
2019-03-05T10:03:11.312Z,48.46
2019-03-05T10:05:40.694Z,48.38
2019-03-05T10:08:10.160Z,47.85
2019-03-05T10:10:39.413Z,47.34
2019-03-05T10:13:08.582Z,47.12
2019-03-05T10:15:38.190Z,46.93
2019-03-05T10:18:12.653Z,46.69
2019-03-05T10:20:38.818Z,45.66
2019-03-05T10:23:08.005Z,45.55
2019-03-05T10:25:37.235Z,45.07
2019-03-05T10:28:06.780Z,44.53
2019-03-05T10:30:36.850Z,44.01
2019-03-05T10:33:06.984Z,43.61
2019-03-05T10:35:36.223Z,42.83
2019-03-05T10:38:06.622Z,42.78
2019-03-05T10:40:38.206Z,43.03
2019-03-05T10:43:09.152Z,43.40
2019-03-05T10:45:39.181Z,43.28
2019-03-05T10:48:08.357Z,42.81
2019-03-05T10:50:37.528Z,42.49
2019-03-05T10:53:06.766Z,41.98
2019-03-05T10:55:35.942Z,41.15
2019-03-05T10:58:05.467Z,40.16
2019-03-05T11:00:37.327Z,39.85
2019-03-05T11:03:06.818Z,40.08
2019-03-05T11:05:38.066Z,40.25
2019-03-05T11:08:09.425Z,40.24
2019-03-05T11:10:41.068Z,39.47
2019-03-05T11:13:12.097Z,39.29
2019-03-05T11:15:41.274Z,39.32
2019-03-05T11:18:11.213Z,39.25
2019-03-05T11:20:40.697Z,38.84
2019-03-05T11:23:11.711Z,38.90
2019-03-05T11:25:41.174Z,38.94
2019-03-05T11:28:10.424Z,38.57
2019-03-05T11:30:39.801Z,37.44
2019-03-05T11:33:09.046Z,37.04
2019-03-05T11:35:39.082Z,37.05
2019-03-05T11:38:08.289Z,37.18
2019-03-05T11:40:37.653Z,37.53
2019-03-05T11:43:09.956Z,39.07
2019-03-05T11:45:40.442Z,40.71
2019-03-05T11:48:09.798Z,41.08
2019-03-05T11:50:38.981Z,40.98
2019-03-05T11:53:08.488Z,40.96
2019-03-05T11:55:37.967Z,40.26
2019-03-05T11:58:07.193Z,40.47
2019-03-05T12:00:47.062Z,39.42
2019-03-05T12:03:16.628Z,39.36
2019-03-05T12:05:45.874Z,38.96
2019-03-05T12:08:15.046Z,39.04
2019-03-05T12:10:44.284Z,39.17
2019-03-05T12:13:14.551Z,39.48
2019-03-05T12:15:43.985Z,38.94
2019-03-05T12:18:13.158Z,39.11
2019-03-05T12:20:42.408Z,38.51
2019-03-05T12:23:11.909Z,38.02
2019-03-05T12:25:41.594Z,38.11
2019-03-05T12:28:11.399Z,38.69
2019-03-05T12:30:40.845Z,38.89
2019-03-05T12:33:10.286Z,39.31
2019-03-05T12:35:39.521Z,38.37
2019-03-05T12:38:08.693Z,38.03
2019-03-05T12:40:37.931Z,38.26
2019-03-05T12:43:07.387Z,37.97
2019-03-05T12:45:36.718Z,38.86
2019-03-05T12:48:06.320Z,38.52
2019-03-05T12:50:36.027Z,38.37
2019-03-05T12:53:05.453Z,38.95
2019-03-05T12:55:34.767Z,38.98
2019-03-05T12:58:03.995Z,38.92
2019-03-05T13:00:33.518Z,38.91
2019-03-05T13:03:02.753Z,38.67
2019-03-05T13:05:31.924Z,38.40
2019-03-05T13:08:01.207Z,38.47
2019-03-05T13:10:34.859Z,38.51
2019-03-05T13:13:01.452Z,38.37
2019-03-05T13:15:30.666Z,38.67
2019-03-05T13:18:00.185Z,38.75
2019-03-05T13:20:29.732Z,38.99
2019-03-05T13:22:59.233Z,38.90
2019-03-05T13:25:29.908Z,39.23
2019-03-05T13:28:01.919Z,39.39
2019-03-05T13:30:30.245Z,39.33
2019-03-05T13:33:00.841Z,39.23
2019-03-05T13:35:31.929Z,38.93
2019-03-05T13:38:03.305Z,39.13
2019-03-05T13:40:34.079Z,39.02
2019-03-05T13:43:03.270Z,39.00
2019-03-05T13:45:32.456Z,38.75
2019-03-05T13:48:05.372Z,38.73
2019-03-05T13:50:57.571Z,38.47
2019-03-05T13:54:01.396Z,38.67
2019-03-05T13:57:02.103Z,38.52
2019-03-05T13:59:45.531Z,38.70
2019-03-05T14:02:19.951Z,38.70
2019-03-05T14:04:58.986Z,38.49
2019-03-05T14:08:17.656Z,38.51
2019-03-05T14:10:47.094Z,38.19
2019-03-05T14:13:16.268Z,38.32
2019-03-05T14:15:45.603Z,38.58
2019-03-05T14:18:14.771Z,38.72
2019-03-05T14:20:44.011Z,38.51
2019-03-05T14:23:13.184Z,38.82
2019-03-05T14:25:42.435Z,38.99
2019-03-05T14:28:11.692Z,39.27
2019-03-05T14:30:41.190Z,39.53
2019-03-05T14:33:10.585Z,39.83
2019-03-05T14:35:39.885Z,40.11
2019-03-05T14:38:09.023Z,40.53
2019-03-05T14:40:38.389Z,40.28
2019-03-05T14:43:07.848Z,40.68
2019-03-05T14:45:37.862Z,40.76
2019-03-05T14:48:07.347Z,41.04
2019-03-05T14:50:36.785Z,41.43
2019-03-05T14:53:06.189Z,41.84
2019-03-05T14:55:35.354Z,42.07
2019-03-05T14:58:04.621Z,42.21
2019-03-05T15:00:33.938Z,42.35
2019-03-05T15:03:03.141Z,42.27
2019-03-05T15:05:32.503Z,42.38
2019-03-05T15:08:02.041Z,42.32
2019-03-05T15:10:31.210Z,42.43
2019-03-05T15:13:00.472Z,42.63
2019-03-05T15:15:30.639Z,42.62
2019-03-05T15:18:00.430Z,42.45
2019-03-05T15:20:29.646Z,42.26
2019-03-05T15:22:58.828Z,41.65
2019-03-05T15:25:28.447Z,41.55
2019-03-05T15:27:57.702Z,41.53
2019-03-05T15:30:28.933Z,41.66
2019-03-05T15:32:57.894Z,41.74
2019-03-05T15:35:27.173Z,41.78
2019-03-05T15:37:56.448Z,41.94
2019-03-05T15:40:25.780Z,42.20
2019-03-05T15:42:55.209Z,43.08
2019-03-05T15:45:24.557Z,43.29
2019-03-05T15:47:53.756Z,43.51
2019-03-05T15:50:23.054Z,45.35
2019-03-05T15:52:52.264Z,46.96
2019-03-05T15:55:21.761Z,48.30
2019-03-05T15:57:50.950Z,49.39
2019-03-05T16:00:23.710Z,50.43
2019-03-05T16:02:52.911Z,51.41
2019-03-05T16:05:22.284Z,52.48
2019-03-05T16:07:51.524Z,53.06
2019-03-05T16:10:21.972Z,53.41
2019-03-05T16:12:51.507Z,53.76
2019-03-05T16:15:20.695Z,53.81
2019-03-05T16:17:54.388Z,53.67
2019-03-05T16:20:25.797Z,53.58
2019-03-05T16:22:55.072Z,53.16
2019-03-05T16:25:25.566Z,53.09
2019-03-05T16:27:54.899Z,53.21
2019-03-05T16:30:41.835Z,53.19
2019-03-05T16:33:36.801Z,53.44
2019-03-05T16:36:38.554Z,53.90
2019-03-05T16:39:13.414Z,54.38
2019-03-05T16:42:01.737Z,55.89
2019-03-05T16:44:41.293Z,57.19
2019-03-05T16:47:25.607Z,58.56
2019-03-05T16:50:31.745Z,59.09
2019-03-05T16:53:16.832Z,59.68
2019-03-05T16:56:08.080Z,60.65
2019-03-05T16:59:05.434Z,61.21
2019-03-05T17:01:52.403Z,60.31
2019-03-05T17:04:46.364Z,61.42
2019-03-05T17:07:32.405Z,61.04
2019-03-05T17:10:30.130Z,61.68
2019-03-05T17:12:59.645Z,61.98
2019-03-05T17:15:28.868Z,63.13
2019-03-05T17:17:58.038Z,63.50
2019-03-05T17:20:27.327Z,63.93
2019-03-05T17:22:56.541Z,64.28
2019-03-05T17:25:26.382Z,63.96
2019-03-05T17:27:55.593Z,64.35
2019-03-05T17:30:24.792Z,64.61
2019-03-05T17:32:54.018Z,64.87
2019-03-05T17:35:23.390Z,65.45
2019-03-05T17:37:52.641Z,65.52
2019-03-05T17:40:21.800Z,65.53
2019-03-05T17:42:52.369Z,65.08
2019-03-05T17:45:21.758Z,64.74
2019-03-05T17:47:51.081Z,65.36
2019-03-05T17:50:20.260Z,65.39
2019-03-05T17:52:49.503Z,65.11
2019-03-05T17:55:24.214Z,65.61
2019-03-05T17:57:51.073Z,65.89
2019-03-05T18:00:29.328Z,66.01
2019-03-05T18:02:58.872Z,65.33
2019-03-05T18:05:28.025Z,65.15
2019-03-05T18:07:57.395Z,66.15
2019-03-05T18:10:26.726Z,66.48
2019-03-05T18:12:56.171Z,66.57
2019-03-05T18:15:25.659Z,66.37
2019-03-05T18:17:54.861Z,66.69
2019-03-05T18:20:24.464Z,67.03
2019-03-05T18:22:53.668Z,67.35
2019-03-05T18:25:23.412Z,67.78
2019-03-05T18:27:52.680Z,68.50
2019-03-05T18:30:21.934Z,69.12
2019-03-05T18:32:51.112Z,69.60
2019-03-05T18:35:20.474Z,69.36
2019-03-05T18:37:49.645Z,69.24
2019-03-05T18:40:18.891Z,69.46
2019-03-05T18:42:48.415Z,69.73
2019-03-05T18:45:19.442Z,69.81
2019-03-05T18:47:48.624Z,70.00
2019-03-05T18:50:19.096Z,70.23
2019-03-05T18:52:49.332Z,70.52
2019-03-05T18:55:18.780Z,71.14
2019-03-05T18:57:48.428Z,70.75
2019-03-05T19:00:21.241Z,70.73
2019-03-05T19:02:51.511Z,70.22
2019-03-05T19:05:20.743Z,69.70
2019-03-05T19:07:50.040Z,69.06
2019-03-05T19:10:21.280Z,69.02
2019-03-05T19:12:50.569Z,69.03
2019-03-05T19:15:21.040Z,68.98
2019-03-05T19:17:50.340Z,68.73
2019-03-05T19:20:21.460Z,68.86
2019-03-05T19:22:50.695Z,68.08
2019-03-05T19:25:24.537Z,67.77
2019-03-05T19:27:53.768Z,68.38
2019-03-05T19:30:25.137Z,68.57
2019-03-05T19:32:54.361Z,69.20
2019-03-05T19:35:23.543Z,69.48
2019-03-05T19:37:52.832Z,69.92
2019-03-05T19:40:26.074Z,69.97
2019-03-05T19:42:55.262Z,70.92
2019-03-05T19:45:24.492Z,71.13
2019-03-05T19:47:53.670Z,70.65
2019-03-05T19:50:23.172Z,70.50
2019-03-05T19:52:52.604Z,71.31
2019-03-05T19:55:21.899Z,72.43
2019-03-05T19:57:51.635Z,72.36
2019-03-05T20:00:32.137Z,71.71
2019-03-05T20:03:01.306Z,71.98
2019-03-05T20:05:30.542Z,72.01
2019-03-05T20:07:59.766Z,71.92
2019-03-05T20:10:29.023Z,72.38
2019-03-05T20:12:58.190Z,71.89
2019-03-05T20:15:27.693Z,71.88
2019-03-05T20:17:59.184Z,72.15
2019-03-05T20:20:28.045Z,71.76
2019-03-05T20:22:57.227Z,71.89
2019-03-05T20:25:26.488Z,71.99
2019-03-05T20:27:55.840Z,72.45
2019-03-05T20:30:25.092Z,72.37
2019-03-05T20:32:54.263Z,72.95
2019-03-05T20:35:23.484Z,72.70
2019-03-05T20:37:52.656Z,72.55
2019-03-05T20:40:21.969Z,72.44
2019-03-05T20:42:51.143Z,72.67
2019-03-05T20:45:23.323Z,72.68
2019-03-05T20:47:52.503Z,72.22
2019-03-05T20:50:21.733Z,72.23
2019-03-05T20:52:51.206Z,72.68
2019-03-05T20:55:20.711Z,73.07
2019-03-05T20:57:49.898Z,72.39
2019-03-05T21:00:24.723Z,72.41
2019-03-05T21:02:54.536Z,72.56
2019-03-05T21:05:24.285Z,73.06
2019-03-05T21:07:53.500Z,73.25
2019-03-05T21:10:22.717Z,73.27
2019-03-05T21:12:51.992Z,73.76
2019-03-05T21:15:21.215Z,73.44
2019-03-05T21:17:51.107Z,73.11
2019-03-05T21:20:20.605Z,73.14
2019-03-05T21:22:50.065Z,73.23
2019-03-05T21:25:19.404Z,73.38
2019-03-05T21:27:48.758Z,73.52
2019-03-05T21:30:18.854Z,73.23
2019-03-05T21:32:48.446Z,73.21
2019-03-05T21:35:17.619Z,73.49
2019-03-05T21:37:46.955Z,73.43
2019-03-05T21:40:18.111Z,73.37
2019-03-05T21:42:47.370Z,72.78
2019-03-05T21:45:22.294Z,72.67
2019-03-05T21:47:51.517Z,72.45
2019-03-05T21:50:20.868Z,72.92
2019-03-05T21:52:50.101Z,72.18
2019-03-05T21:55:19.485Z,72.73
2019-03-05T21:57:48.713Z,72.62
2019-03-05T22:00:20.425Z,72.63
2019-03-05T22:02:49.743Z,72.08
2019-03-05T22:05:19.018Z,71.67
2019-03-05T22:07:48.305Z,71.79
2019-03-05T22:10:18.354Z,71.82
2019-03-05T22:12:47.590Z,71.68
2019-03-05T22:15:18.220Z,70.98
2019-03-05T22:17:47.482Z,70.90
2019-03-05T22:20:17.555Z,70.60
2019-03-05T22:22:46.817Z,70.84
2019-03-05T22:25:17.644Z,70.46
2019-03-05T22:27:46.811Z,70.02
2019-03-05T22:30:18.203Z,70.50
2019-03-05T22:32:47.379Z,70.80
2019-03-05T22:35:17.535Z,70.95
2019-03-05T22:37:46.718Z,70.88
2019-03-05T22:40:16.041Z,70.76
2019-03-05T22:42:45.221Z,70.86
2019-03-05T22:45:16.762Z,70.85
2019-03-05T22:47:45.945Z,71.10
2019-03-05T22:50:15.489Z,70.83
2019-03-05T22:52:45.059Z,70.94
2019-03-05T22:55:14.422Z,70.99
2019-03-05T22:57:43.609Z,70.90
2019-03-05T23:00:37.310Z,70.97
2019-03-05T23:03:06.812Z,70.84
2019-03-05T23:05:36.274Z,71.56
2019-03-05T23:08:06.060Z,70.71
2019-03-05T23:10:35.588Z,70.95
2019-03-05T23:13:05.486Z,70.94
2019-03-05T23:15:34.726Z,70.93
2019-03-05T23:18:04.115Z,71.05
2019-03-05T23:20:33.805Z,71.25
2019-03-05T23:23:03.028Z,71.58
2019-03-05T23:25:32.519Z,71.67
2019-03-05T23:28:06.763Z,71.02
2019-03-05T23:30:36.104Z,70.89
2019-03-05T23:33:05.548Z,70.77
2019-03-05T23:35:34.748Z,70.33
2019-03-05T23:38:04.210Z,70.53
2019-03-05T23:40:33.399Z,70.61
2019-03-05T23:43:03.232Z,70.69
2019-03-05T23:45:32.768Z,70.65
2019-03-05T23:48:02.015Z,70.88
2019-03-05T23:50:31.452Z,70.87
2019-03-05T23:53:00.749Z,70.32
2019-03-05T23:55:30.195Z,70.53
2019-03-05T23:57:59.442Z,70.55
